Time;durP1;ratioP1;P1;durP2;ratioP2;P2;SDS_P1;SDS_P2;PMS_P1;PMS_P2;Temp;Humidity;BMP_temperature;BMP_pressure;BME280_temperature;BME280_humidity;BME280_pressure;Samples;Min_cycle;Max_cycle;Signal;HPM_P1;HPM_P2
2023/11/07 00:00:10;;;;;;;2.65;0.75;;;9.30;99.90;;;;;;4104484;29;20189;-91
2023/11/07 00:02:11;;;;;;;1.52;0.70;;;9.30;99.90;;;;;;4096465;29;20222;-91
2023/11/07 00:04:12;;;;;;;2.40;0.35;;;9.30;99.90;;;;;;4105387;29;20195;-90
2023/11/07 00:06:13;;;;;;;3.10;1.35;;;9.30;99.90;;;;;;4105179;29;20238;-96
2023/11/07 00:08:13;;;;;;;1.08;0.50;;;9.30;99.90;;;;;;4103521;28;20213;-90
2023/11/07 00:10:14;;;;;;;0.68;0.50;;;9.30;99.90;;;;;;4103644;29;20175;-94
2023/11/07 00:12:16;;;;;;;1.58;0.77;;;9.20;99.90;;;;;;4104421;29;20199;-95
2023/11/07 00:14:21;;;;;;;0.88;0.30;;;9.30;99.90;;;;;;4104014;29;20179;-91
2023/11/07 00:16:21;;;;;;;2.83;0.40;;;9.30;99.90;;;;;;4104249;29;20532;-91
2023/11/07 00:18:22;;;;;;;5.47;0.93;;;9.30;99.90;;;;;;4103605;29;20389;-94
2023/11/07 00:20:23;;;;;;;0.75;0.55;;;9.30;99.90;;;;;;4103994;28;20274;-90
2023/11/07 00:22:26;;;;;;;4.55;0.75;;;9.20;99.90;;;;;;4103646;29;20221;-90
2023/11/07 00:24:26;;;;;;;1.27;0.63;;;9.20;99.90;;;;;;4119031;28;20190;-90
2023/11/07 00:26:27;;;;;;;1.33;0.50;;;9.20;99.90;;;;;;4103299;29;20183;-90
2023/11/07 00:28:28;;;;;;;1.02;0.60;;;9.30;99.90;;;;;;4119747;28;20195;-91
2023/11/07 00:30:29;;;;;;;3.63;0.68;;;9.40;99.90;;;;;;4103239;29;20179;-91
2023/11/07 00:32:29;;;;;;;3.60;0.43;;;9.40;99.90;;;;;;4103595;29;20191;-94
2023/11/07 00:34:31;;;;;;;3.35;1.20;;;9.50;99.90;;;;;;4102811;29;20286;-90
2023/11/07 00:36:32;;;;;;;3.63;0.93;;;9.60;99.90;;;;;;4103640;29;20191;-95
2023/11/07 00:38:33;;;;;;;8.93;0.30;;;9.60;99.90;;;;;;4103852;29;20195;-90
2023/11/07 00:40:34;;;;;;;1.55;0.65;;;9.70;99.90;;;;;;4102899;29;20671;-94
2023/11/07 00:42:35;;;;;;;3.10;0.73;;;9.60;99.90;;;;;;4103015;28;20219;-91
2023/11/07 00:44:36;;;;;;;3.38;0.50;;;9.70;99.90;;;;;;4105238;29;20194;-90
2023/11/07 00:46:37;;;;;;;0.13;0.13;;;9.70;99.90;;;;;;4121083;28;20186;-90
2023/11/07 00:48:38;;;;;;;3.05;0.85;;;9.70;99.90;;;;;;4104175;29;20206;-91
2023/11/07 00:50:39;;;;;;;1.45;0.43;;;9.70;99.90;;;;;;4105994;29;20261;-89
2023/11/07 00:52:39;;;;;;;0.60;0.40;;;9.70;99.90;;;;;;4120766;28;20191;-91
2023/11/07 00:54:40;;;;;;;5.78;0.30;;;9.60;99.90;;;;;;4105219;29;20210;-90
2023/11/07 00:56:41;;;;;;;2.97;0.82;;;9.70;99.90;;;;;;4104506;29;20250;-91
2023/11/07 00:58:42;;;;;;;6.68;0.73;;;9.60;99.90;;;;;;4104148;29;20211;-89
2023/11/07 01:00:43;;;;;;;5.60;0.40;;;9.60;99.90;;;;;;4104469;29;20183;-91
2023/11/07 01:02:44;;;;;;;3.55;1.08;;;9.60;99.90;;;;;;4103970;29;20214;-91
2023/11/07 01:04:45;;;;;;;2.17;0.65;;;9.50;99.90;;;;;;4103593;28;20571;-95
2023/11/07 01:06:45;;;;;;;6.18;0.75;;;9.50;99.90;;;;;;4103320;29;20214;-95
2023/11/07 01:08:46;;;;;;;0.30;0.10;;;9.40;99.90;;;;;;4105392;29;20210;-92
2023/11/07 01:10:47;;;;;;;1.40;0.63;;;9.40;99.90;;;;;;4103369;29;20209;-90
2023/11/07 01:12:48;;;;;;;5.95;0.80;;;9.40;99.90;;;;;;4102902;29;20218;-90
2023/11/07 01:14:49;;;;;;;0.45;0.20;;;9.50;99.90;;;;;;4104197;29;20187;-91
2023/11/07 01:16:49;;;;;;;2.97;0.55;;;9.50;99.90;;;;;;4103903;29;20179;-90
2023/11/07 01:18:52;;;;;;;0.95;0.70;;;9.60;99.90;;;;;;4121192;28;20198;-93
2023/11/07 01:20:53;;;;;;;3.03;0.57;;;9.60;99.90;;;;;;4104286;29;20269;-96
2023/11/07 01:22:54;;;;;;;3.95;0.50;;;9.60;99.90;;;;;;4103948;29;20242;-95
2023/11/07 01:24:55;;;;;;;8.98;1.30;;;9.70;99.90;;;;;;4119487;28;20186;-90
2023/11/07 01:26:55;;;;;;;3.05;0.63;;;9.70;99.90;;;;;;4102583;29;20246;-91
2023/11/07 01:28:56;;;;;;;1.38;0.60;;;9.80;99.90;;;;;;4103190;28;20175;-91
2023/11/07 01:30:57;;;;;;;2.20;0.88;;;9.70;99.90;;;;;;4102926;29;20179;-91
2023/11/07 01:32:58;;;;;;;1.48;0.47;;;9.70;99.90;;;;;;4103539;29;20615;-90
2023/11/07 01:34:59;;;;;;;3.42;0.60;;;9.70;99.90;;;;;;4103909;28;20185;-91
2023/11/07 01:37:00;;;;;;;3.17;0.35;;;9.70;99.90;;;;;;4119115;28;20186;-94
2023/11/07 01:39:00;;;;;;;1.45;0.60;;;9.80;99.90;;;;;;4102613;29;20222;-95
2023/11/07 01:41:01;;;;;;;2.15;0.75;;;9.80;99.90;;;;;;4102584;29;20238;-92
2023/11/07 01:43:15;;;;;;;2.10;0.57;;;9.80;99.90;;;;;;4103520;29;20210;-91
2023/11/07 01:45:17;;;;;;;0.30;0.20;;;9.70;99.90;;;;;;4105094;29;20214;-91
2023/11/07 01:47:19;;;;;;;2.08;0.50;;;9.60;99.90;;;;;;4119149;28;20198;-94
2023/11/07 01:49:22;;;;;;;0.70;0.43;;;9.60;99.90;;;;;;4120900;28;20178;-93
2023/11/07 01:51:24;;;;;;;5.80;1.00;;;9.60;99.90;;;;;;4120267;28;20185;-95
2023/11/07 01:53:27;;;;;;;0.75;0.32;;;9.60;99.90;;;;;;4103537;29;20648;-92
2023/11/07 01:55:28;;;;;;;3.17;0.60;;;9.50;99.90;;;;;;4103252;29;20179;-90
2023/11/07 01:57:29;;;;;;;2.42;1.02;;;9.40;99.90;;;;;;4102987;29;20305;-96
2023/11/07 01:59:30;;;;;;;6.57;1.00;;;9.40;99.90;;;;;;4102644;29;20237;-95
2023/11/07 02:01:34;;;;;;;0.80;0.50;;;9.30;99.90;;;;;;4103410;29;20183;-93
2023/11/07 02:03:37;;;;;;;1.42;1.00;;;9.20;99.90;;;;;;4117999;28;20225;-95
2023/11/07 02:05:41;;;;;;;0.85;0.50;;;9.30;99.90;;;;;;4119570;28;20194;-90
2023/11/07 02:07:44;;;;;;;2.00;0.35;;;9.40;99.90;;;;;;4102093;28;20198;-90
2023/11/07 02:09:45;;;;;;;1.13;0.47;;;9.40;99.90;;;;;;4119868;28;20186;-95
2023/11/07 02:11:46;;;;;;;1.25;0.45;;;9.40;99.90;;;;;;4101764;29;20198;-91
2023/11/07 02:13:50;;;;;;;2.42;1.08;;;9.30;99.90;;;;;;4107666;29;20547;-96
2023/11/07 02:15:54;;;;;;;5.88;1.00;;;9.20;99.90;;;;;;4106553;29;20631;-93
2023/11/07 02:17:54;;;;;;;9.07;2.03;;;9.10;99.90;;;;;;4119417;28;20293;-91
2023/11/07 02:19:55;;;;;;;10.07;0.60;;;9.20;99.90;;;;;;4119419;28;20189;-90
2023/11/07 02:22:00;;;;;;;0.65;0.52;;;9.20;99.90;;;;;;4103274;29;20186;-91
2023/11/07 02:24:01;;;;;;;5.03;0.70;;;9.30;99.90;;;;;;4104416;29;20675;-91
2023/11/07 02:26:01;;;;;;;1.25;0.55;;;9.30;99.90;;;;;;4118056;28;20182;-90
2023/11/07 02:28:02;;;;;;;0.38;0.22;;;9.30;99.90;;;;;;4103474;28;20207;-91
2023/11/07 02:30:04;;;;;;;1.90;0.47;;;9.20;99.90;;;;;;4118238;28;20178;-92
2023/11/07 02:32:05;;;;;;;0.70;0.30;;;9.10;99.90;;;;;;4104385;29;20182;-89
2023/11/07 02:34:06;;;;;;;6.63;0.60;;;9.10;99.90;;;;;;4118461;28;20233;-91
2023/11/07 02:36:07;;;;;;;0.80;0.47;;;9.10;99.90;;;;;;4103278;29;20179;-90
2023/11/07 02:38:10;;;;;;;3.17;0.77;;;9.00;99.90;;;;;;4103808;29;20705;-90
2023/11/07 02:40:11;;;;;;;1.02;0.85;;;9.00;99.90;;;;;;4101366;29;20171;-95
2023/11/07 02:42:12;;;;;;;1.15;0.63;;;9.00;99.90;;;;;;4102466;29;20319;-95
2023/11/07 02:44:13;;;;;;;1.00;0.45;;;9.10;99.90;;;;;;4100943;29;20191;-89
2023/11/07 02:46:14;;;;;;;3.35;0.60;;;9.10;99.90;;;;;;4117702;28;20248;-90
2023/11/07 02:48:14;;;;;;;1.85;0.60;;;9.20;99.90;;;;;;4101301;29;20203;-95
2023/11/07 02:50:16;;;;;;;0.90;0.60;;;9.20;99.90;;;;;;4119580;28;20256;-90
2023/11/07 02:52:17;;;;;;;3.17;1.27;;;9.20;99.90;;;;;;4103112;29;20198;-90
2023/11/07 02:54:18;;;;;;;2.50;0.80;;;9.20;99.90;;;;;;4118795;28;20186;-90
2023/11/07 02:56:23;;;;;;;1.17;0.60;;;9.10;99.90;;;;;;4104201;29;20187;-89
2023/11/07 02:58:24;;;;;;;1.63;0.50;;;9.00;99.90;;;;;;4103825;29;20203;-92
2023/11/07 03:00:26;;;;;;;3.53;0.95;;;9.00;99.90;;;;;;4101859;29;20185;-90
2023/11/07 03:02:27;;;;;;;1.20;0.43;;;9.10;99.90;;;;;;4100200;29;20698;-91
2023/11/07 03:04:28;;;;;;;3.30;0.80;;;9.00;99.90;;;;;;4101300;28;20183;-90
2023/11/07 03:06:29;;;;;;;4.95;1.00;;;9.00;99.90;;;;;;4116158;28;20186;-90
2023/11/07 03:08:29;;;;;;;1.05;0.50;;;9.00;99.90;;;;;;4102882;29;20245;-91
2023/11/07 03:10:31;;;;;;;3.08;0.80;;;9.00;99.90;;;;;;4102229;29;20193;-91
2023/11/07 03:12:33;;;;;;;0.80;0.60;;;8.90;99.90;;;;;;4102462;28;20178;-90
2023/11/07 03:14:37;;;;;;;2.17;0.80;;;8.90;99.90;;;;;;4102353;29;20198;-94
2023/11/07 03:16:40;;;;;;;0.85;0.60;;;8.90;99.90;;;;;;4102931;28;20170;-91
2023/11/07 03:18:40;;;;;;;2.80;0.57;;;8.90;99.90;;;;;;4102742;29;20223;-90
2023/11/07 03:20:41;;;;;;;2.00;1.13;;;9.00;99.90;;;;;;4103901;29;20206;-91
2023/11/07 03:22:42;;;;;;;4.65;1.17;;;8.90;99.90;;;;;;4104906;29;20210;-91
2023/11/07 03:24:44;;;;;;;1.58;0.70;;;8.90;99.90;;;;;;4103422;29;20179;-95
2023/11/07 03:26:45;;;;;;;7.97;1.08;;;8.90;99.90;;;;;;4102826;29;20183;-92
2023/11/07 03:28:46;;;;;;;1.23;0.90;;;8.90;99.90;;;;;;4105863;28;20206;-91
2023/11/07 03:30:47;;;;;;;3.17;1.08;;;8.90;99.90;;;;;;4108306;29;20277;-90
2023/11/07 03:32:49;;;;;;;2.45;0.63;;;8.80;99.90;;;;;;4106509;28;20279;-91
2023/11/07 03:34:49;;;;;;;0.70;0.60;;;8.80;99.90;;;;;;4107716;29;20286;-91
2023/11/07 03:36:51;;;;;;;3.40;0.57;;;8.90;99.90;;;;;;4107647;29;20171;-94
2023/11/07 03:38:52;;;;;;;1.50;0.75;;;8.90;99.90;;;;;;4106391;28;20693;-95
2023/11/07 03:40:55;;;;;;;1.30;0.60;;;8.90;99.90;;;;;;4122939;28;20547;-94
2023/11/07 03:42:55;;;;;;;0.60;0.50;;;8.80;99.90;;;;;;4107232;29;20218;-95
2023/11/07 03:44:56;;;;;;;3.03;0.70;;;8.70;99.90;;;;;;4107938;29;20269;-95
2023/11/07 03:46:57;;;;;;;1.23;0.65;;;8.70;99.90;;;;;;4123900;28;20189;-90
2023/11/07 03:48:58;;;;;;;9.35;1.10;;;8.70;99.90;;;;;;4107005;29;20175;-92
2023/11/07 03:50:59;;;;;;;4.80;1.13;;;8.80;99.90;;;;;;4122529;28;20290;-90
2023/11/07 03:52:59;;;;;;;1.55;0.88;;;8.80;99.90;;;;;;4106780;28;20179;-91
2023/11/07 03:55:00;;;;;;;1.95;0.85;;;9.00;99.90;;;;;;4108118;28;20249;-91
2023/11/07 03:57:01;;;;;;;5.72;1.80;;;9.00;99.90;;;;;;4106339;28;20507;-91
2023/11/07 03:59:03;;;;;;;2.83;0.80;;;8.90;99.90;;;;;;4107160;29;20234;-90
2023/11/07 04:01:04;;;;;;;2.22;1.15;;;8.90;99.90;;;;;;4122144;28;20182;-90
2023/11/07 04:03:05;;;;;;;1.38;0.60;;;8.80;99.90;;;;;;4106468;29;20277;-91
2023/11/07 04:05:07;;;;;;;2.13;0.80;;;8.80;99.90;;;;;;4107147;28;20204;-94
2023/11/07 04:07:08;;;;;;;4.95;0.47;;;8.90;99.90;;;;;;4107648;29;20576;-91
2023/11/07 04:09:08;;;;;;;1.08;0.68;;;8.90;99.90;;;;;;4125364;28;20185;-91
2023/11/07 04:11:09;;;;;;;2.58;0.77;;;8.90;99.90;;;;;;4109822;28;20698;-91
2023/11/07 04:13:10;;;;;;;3.15;0.93;;;8.90;99.90;;;;;;4108429;28;20179;-96
2023/11/07 04:15:12;;;;;;;3.25;1.15;;;8.80;99.90;;;;;;4106955;29;20214;-91
2023/11/07 04:17:12;;;;;;;4.05;1.20;;;8.70;99.90;;;;;;4107567;28;20189;-95
2023/11/07 04:19:13;;;;;;;6.30;1.02;;;8.70;99.90;;;;;;4106196;28;20191;-95
2023/11/07 04:21:14;;;;;;;4.10;0.80;;;8.70;99.90;;;;;;4106189;29;20174;-94
2023/11/07 04:23:16;;;;;;;1.95;0.80;;;8.70;99.90;;;;;;4122083;28;20253;-95
2023/11/07 04:25:19;;;;;;;3.13;1.23;;;8.80;99.90;;;;;;4107340;28;20175;-90
2023/11/07 04:27:20;;;;;;;4.32;0.95;;;8.80;99.90;;;;;;4106404;29;20235;-95
2023/11/07 04:29:20;;;;;;;2.70;1.30;;;8.80;99.90;;;;;;4108269;28;20199;-93
2023/11/07 04:31:22;;;;;;;1.92;0.80;;;8.80;99.90;;;;;;4105792;28;20199;-90
2023/11/07 04:33:23;;;;;;;4.70;1.58;;;8.90;99.90;;;;;;4107904;28;20218;-90
2023/11/07 04:35:25;;;;;;;1.50;0.68;;;8.90;99.90;;;;;;4123528;28;20186;-90
2023/11/07 04:37:25;;;;;;;5.22;1.10;;;9.00;99.90;;;;;;4108825;28;20204;-91
2023/11/07 04:39:26;;;;;;;2.25;1.17;;;9.00;99.90;;;;;;4106264;28;20258;-90
2023/11/07 04:41:27;;;;;;;2.97;1.30;;;9.10;99.90;;;;;;4105085;29;20528;-91
2023/11/07 04:43:35;;;;;;;2.97;0.70;;;9.00;99.90;;;;;;4104506;29;20231;-91
2023/11/07 04:45:36;;;;;;;1.45;0.90;;;9.00;99.90;;;;;;4104353;28;20175;-90
2023/11/07 04:47:38;;;;;;;1.15;0.73;;;8.90;99.90;;;;;;4104300;29;20206;-91
2023/11/07 04:49:42;;;;;;;1.02;0.75;;;9.00;99.90;;;;;;4104494;29;20183;-91
2023/11/07 04:51:43;;;;;;;2.35;0.77;;;9.00;99.90;;;;;;4120839;28;20209;-91
2023/11/07 04:53:44;;;;;;;5.47;1.17;;;9.00;99.90;;;;;;4105684;29;20202;-90
2023/11/07 04:55:46;;;;;;;3.22;0.77;;;8.90;99.90;;;;;;4104717;28;20190;-94
2023/11/07 04:57:47;;;;;;;1.77;0.75;;;8.90;99.90;;;;;;4104472;29;20279;-91
2023/11/07 04:59:48;;;;;;;1.23;0.93;;;8.80;99.90;;;;;;4119717;28;20201;-91
2023/11/07 05:01:50;;;;;;;3.13;0.80;;;8.90;99.90;;;;;;4103877;29;20183;-91
2023/11/07 05:03:53;;;;;;;3.30;0.82;;;8.90;99.90;;;;;;4120940;28;20186;-91
2023/11/07 05:05:55;;;;;;;2.42;1.08;;;8.80;99.90;;;;;;4105815;29;20202;-90
2023/11/07 05:07:59;;;;;;;1.55;0.80;;;8.80;99.90;;;;;;4104935;28;20236;-90
2023/11/07 05:10:00;;;;;;;2.60;1.10;;;8.80;99.90;;;;;;4104869;29;20179;-96
2023/11/07 05:12:03;;;;;;;2.78;0.90;;;8.80;99.90;;;;;;4105005;29;20677;-90
2023/11/07 05:14:03;;;;;;;2.25;1.13;;;8.70;99.90;;;;;;4107615;28;20182;-91
2023/11/07 05:16:05;;;;;;;3.20;1.20;;;8.70;99.90;;;;;;4106285;29;20551;-95
2023/11/07 05:18:06;;;;;;;1.88;1.27;;;8.80;99.90;;;;;;4121740;28;20666;-90
2023/11/07 05:20:11;;;;;;;2.30;0.98;;;8.70;99.90;;;;;;4106391;29;20871;-94
2023/11/07 05:22:12;;;;;;;2.58;1.13;;;8.70;99.90;;;;;;4103296;29;20679;-90
2023/11/07 05:24:13;;;;;;;0.95;0.68;;;8.70;99.90;;;;;;4105682;29;20245;-92
2023/11/07 05:26:14;;;;;;;2.30;1.25;;;8.70;99.90;;;;;;4105174;29;20231;-96
2023/11/07 05:28:14;;;;;;;2.92;1.30;;;8.70;99.90;;;;;;4105310;29;20255;-91
2023/11/07 05:30:15;;;;;;;4.22;1.05;;;8.60;99.90;;;;;;4119032;28;20185;-90
2023/11/07 05:32:17;;;;;;;4.18;0.68;;;8.70;99.90;;;;;;4103794;29;20678;-90
2023/11/07 05:34:18;;;;;;;9.82;0.80;;;8.80;99.90;;;;;;4101885;29;20179;-91
2023/11/07 05:36:20;;;;;;;2.40;0.95;;;8.80;99.90;;;;;;4106013;29;20186;-91
2023/11/07 05:38:21;;;;;;;1.73;0.70;;;8.80;99.90;;;;;;4121927;28;20225;-91
2023/11/07 05:40:23;;;;;;;3.15;1.48;;;8.80;99.90;;;;;;4106532;29;20214;-92
2023/11/07 05:42:25;;;;;;;1.75;0.80;;;8.80;99.90;;;;;;4105881;29;20211;-90
2023/11/07 05:44:26;;;;;;;2.35;0.82;;;8.90;99.90;;;;;;4104704;29;20190;-96
2023/11/07 05:46:27;;;;;;;5.07;0.85;;;8.80;99.90;;;;;;4105246;29;20250;-91
2023/11/07 05:48:28;;;;;;;2.35;0.60;;;8.80;99.90;;;;;;4105793;29;20199;-95
2023/11/07 05:50:28;;;;;;;1.15;0.90;;;8.90;99.90;;;;;;4104035;29;20270;-91
2023/11/07 05:52:29;;;;;;;1.52;1.00;;;8.90;99.90;;;;;;4119314;28;20238;-92
2023/11/07 05:54:30;;;;;;;1.50;0.73;;;8.90;99.90;;;;;;4104947;29;20187;-92
2023/11/07 05:56:32;;;;;;;5.88;1.50;;;8.90;99.90;;;;;;4106584;28;20191;-91
2023/11/07 05:58:32;;;;;;;1.98;0.82;;;8.90;99.90;;;;;;4104548;29;20703;-91
2023/11/07 06:00:33;;;;;;;1.70;0.90;;;8.80;99.90;;;;;;4102546;29;20320;-90
2023/11/07 06:02:35;;;;;;;2.13;0.90;;;8.90;99.90;;;;;;4104004;29;20690;-91
2023/11/07 06:04:36;;;;;;;5.85;1.05;;;8.90;99.90;;;;;;4104043;29;20273;-95
2023/11/07 06:06:37;;;;;;;1.88;0.90;;;8.90;99.90;;;;;;4103727;29;20190;-91
2023/11/07 06:08:38;;;;;;;1.67;0.73;;;8.80;99.90;;;;;;4107702;29;20245;-95
2023/11/07 06:10:38;;;;;;;2.22;0.73;;;8.80;99.90;;;;;;4108937;29;20199;-90
2023/11/07 06:12:39;;;;;;;6.43;2.40;;;8.80;99.90;;;;;;4108770;29;20207;-91
2023/11/07 06:14:40;;;;;;;2.00;0.80;;;8.80;99.90;;;;;;4106039;29;20258;-91
2023/11/07 06:16:41;;;;;;;1.10;0.63;;;8.80;99.90;;;;;;4110318;29;20163;-91
2023/11/07 06:18:42;;;;;;;3.65;0.90;;;8.80;99.90;;;;;;4106002;29;20195;-91
2023/11/07 06:20:43;;;;;;;1.73;0.50;;;8.80;99.90;;;;;;4106268;29;20178;-91
2023/11/07 06:22:44;;;;;;;2.90;0.75;;;8.70;99.90;;;;;;4124209;28;20253;-96
2023/11/07 06:24:46;;;;;;;2.40;0.52;;;8.80;99.90;;;;;;4107510;29;20222;-96
2023/11/07 06:26:47;;;;;;;7.22;0.70;;;8.80;99.90;;;;;;4106118;29;20190;-95
2023/11/07 06:28:48;;;;;;;1.65;0.47;;;8.90;99.90;;;;;;4107620;29;20266;-91
2023/11/07 06:30:51;;;;;;;2.40;0.47;;;8.80;99.90;;;;;;4107521;29;20187;-91
2023/11/07 06:32:52;;;;;;;2.33;1.08;;;8.90;99.90;;;;;;4124234;28;20186;-91
2023/11/07 06:34:53;;;;;;;0.65;0.50;;;8.80;99.90;;;;;;4122329;28;20574;-92
2023/11/07 06:36:54;;;;;;;3.83;0.50;;;8.70;99.90;;;;;;4106551;28;20187;-89
2023/11/07 06:38:55;;;;;;;4.15;1.25;;;8.70;99.90;;;;;;4106593;29;20226;-96
2023/11/07 06:40:58;;;;;;;6.13;0.73;;;8.60;99.90;;;;;;4126246;28;20205;-92
2023/11/07 06:42:58;;;;;;;1.15;0.40;;;8.60;99.90;;;;;;4105446;29;20270;-90
2023/11/07 06:45:00;;;;;;;0.43;0.40;;;8.60;99.90;;;;;;4105381;29;20191;-94
2023/11/07 06:47:03;;;;;;;3.28;0.57;;;8.60;99.90;;;;;;4104620;29;20179;-90
2023/11/07 06:49:04;;;;;;;1.30;0.57;;;8.70;99.90;;;;;;4089830;29;20226;-91
2023/11/07 06:51:05;;;;;;;1.40;0.73;;;8.70;99.90;;;;;;4104625;29;20183;-90
2023/11/07 06:53:06;;;;;;;5.07;0.60;;;8.60;99.90;;;;;;4106486;29;20187;-95
2023/11/07 06:55:12;;;;;;;2.13;0.60;;;8.60;99.90;;;;;;4106630;29;20186;-91
2023/11/07 06:57:13;;;;;;;0.47;0.38;;;8.50;99.90;;;;;;4103679;29;20177;-94
2023/11/07 06:59:16;;;;;;;0.90;0.65;;;8.50;99.90;;;;;;4120302;28;20185;-92
2023/11/07 07:01:16;;;;;;;3.85;1.05;;;8.50;99.90;;;;;;4103567;29;20273;-92
2023/11/07 07:03:17;;;;;;;1.23;0.65;;;8.50;99.90;;;;;;4119787;28;20218;-90
2023/11/07 07:05:18;;;;;;;3.97;1.60;;;8.50;99.90;;;;;;4102428;29;20179;-91
2023/11/07 07:07:20;;;;;;;2.15;0.75;;;8.50;99.90;;;;;;4104894;28;20270;-91
2023/11/07 07:09:26;;;;;;;0.95;0.40;;;8.60;99.90;;;;;;4121330;28;20214;-91
2023/11/07 07:11:26;;;;;;;5.03;2.45;;;8.70;99.90;;;;;;4104381;29;20202;-94
2023/11/07 07:13:27;;;;;;;1.77;0.60;;;8.70;99.90;;;;;;4121490;28;20182;-92
2023/11/07 07:15:28;;;;;;;1.10;0.70;;;8.80;99.90;;;;;;4102283;29;20191;-92
2023/11/07 07:17:28;;;;;;;3.10;0.52;;;8.90;99.90;;;;;;4105475;28;20203;-94
2023/11/07 07:19:31;;;;;;;4.05;0.77;;;8.90;99.90;;;;;;4122084;28;20182;-91
2023/11/07 07:21:34;;;;;;;1.40;0.60;;;8.90;99.90;;;;;;4120404;28;20185;-95
2023/11/07 07:23:36;;;;;;;0.85;0.40;;;9.00;99.90;;;;;;4104901;28;20305;-93
2023/11/07 07:25:37;;;;;;;0.52;0.35;;;9.00;99.90;;;;;;4109920;29;20213;-91
2023/11/07 07:27:37;;;;;;;1.75;0.85;;;9.00;99.90;;;;;;4104256;29;20203;-94
2023/11/07 07:29:38;;;;;;;2.20;0.40;;;9.00;99.90;;;;;;4107415;29;20201;-95
2023/11/07 07:31:40;;;;;;;4.63;0.43;;;9.10;99.90;;;;;;4107298;29;20175;-95
2023/11/07 07:33:41;;;;;;;1.95;1.00;;;9.30;99.90;;;;;;4121385;28;20197;-91
2023/11/07 07:35:45;;;;;;;0.75;0.60;;;9.40;99.90;;;;;;4106848;29;20266;-95
2023/11/07 07:37:51;;;;;;;2.15;0.50;;;9.50;99.90;;;;;;4105452;29;20206;-92
2023/11/07 07:39:52;;;;;;;1.98;0.93;;;9.50;99.90;;;;;;4104335;29;20186;-90
2023/11/07 07:41:55;;;;;;;1.88;1.05;;;9.40;99.90;;;;;;4106478;28;20226;-90
2023/11/07 07:43:57;;;;;;;1.40;0.40;;;9.40;99.90;;;;;;4107488;29;20206;-92
2023/11/07 07:45:58;;;;;;;1.05;0.52;;;9.50;99.90;;;;;;4122205;28;20182;-91
2023/11/07 07:47:59;;;;;;;5.72;0.90;;;9.40;99.90;;;;;;4106085;28;20218;-96
2023/11/07 07:50:00;;;;;;;1.70;0.32;;;9.40;99.90;;;;;;4122387;28;20198;-93
2023/11/07 07:52:09;;;;;;;1.42;0.50;;;9.40;99.90;;;;;;4102890;29;20203;-94
2023/11/07 07:54:10;;;;;;;1.50;0.63;;;9.50;99.90;;;;;;4103338;29;20189;-94
2023/11/07 07:56:13;;;;;;;1.08;0.50;;;9.60;99.90;;;;;;4120787;28;20217;-94
2023/11/07 07:58:18;;;;;;;5.93;0.40;;;9.40;99.90;;;;;;4104616;29;20206;-94
2023/11/07 08:00:24;;;;;;;0.55;0.52;;;9.50;99.90;;;;;;4103567;29;20182;-89
2023/11/07 08:02:25;;;;;;;0.77;0.50;;;9.40;99.90;;;;;;4103499;29;20218;-91
2023/11/07 08:04:28;;;;;;;1.20;0.50;;;9.30;99.90;;;;;;4103134;29;20179;-93
2023/11/07 08:06:30;;;;;;;3.40;0.65;;;9.40;99.90;;;;;;4119209;28;20186;-92
2023/11/07 08:08:31;;;;;;;0.77;0.50;;;9.40;99.90;;;;;;4102540;29;20203;-95
2023/11/07 08:10:32;;;;;;;0.57;0.40;;;9.50;99.90;;;;;;4103257;29;20194;-91
2023/11/07 08:12:35;;;;;;;0.75;0.70;;;9.50;99.90;;;;;;4102644;29;20171;-94
2023/11/07 08:14:36;;;;;;;3.70;0.63;;;9.40;99.90;;;;;;4102054;28;20294;-91
2023/11/07 08:16:37;;;;;;;1.98;0.73;;;9.50;99.90;;;;;;4105986;29;20675;-91
2023/11/07 08:18:37;;;;;;;3.08;0.65;;;9.60;99.90;;;;;;4105771;29;20211;-92
2023/11/07 08:20:38;;;;;;;1.40;0.70;;;9.60;99.90;;;;;;4109624;29;20175;-92
2023/11/07 08:22:40;;;;;;;7.18;1.83;;;9.60;99.90;;;;;;4105489;29;20355;-95
2023/11/07 08:24:42;;;;;;;3.30;0.47;;;9.70;99.90;;;;;;4105607;29;20183;-90
2023/11/07 08:26:43;;;;;;;3.80;0.77;;;9.90;99.90;;;;;;4105665;29;20330;-95
2023/11/07 08:28:44;;;;;;;4.47;0.60;;;10.10;99.90;;;;;;4111239;28;20194;-94
2023/11/07 08:30:46;;;;;;;1.48;0.68;;;10.20;99.90;;;;;;4115971;29;20218;-94
2023/11/07 08:32:46;;;;;;;3.58;1.08;;;10.30;99.90;;;;;;4111827;29;20189;-92
2023/11/07 08:34:49;;;;;;;1.05;0.70;;;10.30;99.90;;;;;;4116107;28;20237;-93
2023/11/07 08:37:01;;;;;;;4.28;0.77;;;10.40;99.90;;;;;;4130368;28;20261;-94
2023/11/07 08:39:02;;;;;;;0.90;0.60;;;10.30;99.90;;;;;;4115022;29;20183;-93
2023/11/07 08:41:13;;;;;;;3.83;0.80;;;10.20;99.90;;;;;;4115646;28;20198;-96
2023/11/07 08:43:17;;;;;;;7.68;0.43;;;10.10;99.90;;;;;;4125041;28;20232;-88
2023/11/07 08:45:21;;;;;;;1.90;0.68;;;10.10;99.90;;;;;;4105972;29;20247;-88
2023/11/07 08:47:22;;;;;;;1.45;0.50;;;10.10;99.90;;;;;;4123692;28;20198;-88
2023/11/07 08:49:22;;;;;;;0.43;0.40;;;10.00;99.90;;;;;;4103151;29;20323;-95
2023/11/07 08:51:23;;;;;;;1.83;1.13;;;10.20;99.90;;;;;;4105839;29;20239;-94
2023/11/07 08:53:24;;;;;;;1.52;0.45;;;10.30;99.90;;;;;;4106310;29;20190;-90
2023/11/07 08:55:25;;;;;;;0.98;0.40;;;10.10;99.90;;;;;;4123014;28;20178;-94
2023/11/07 08:57:26;;;;;;;4.65;0.85;;;9.90;99.90;;;;;;4109916;29;20210;-95
2023/11/07 08:59:27;;;;;;;0.60;0.55;;;10.00;99.90;;;;;;4110500;29;20253;-87
2023/11/07 09:01:27;;;;;;;0.90;0.60;;;10.00;99.90;;;;;;4106033;29;20179;-91
2023/11/07 09:03:29;;;;;;;0.35;0.35;;;10.20;99.90;;;;;;4103279;29;20226;-90
2023/11/07 09:05:29;;;;;;;0.80;0.57;;;10.50;99.90;;;;;;4104151;29;20183;-87
2023/11/07 09:07:30;;;;;;;1.08;0.40;;;10.50;99.90;;;;;;4118533;28;20241;-88
2023/11/07 09:09:31;;;;;;;0.70;0.50;;;10.40;99.90;;;;;;4102760;29;20183;-93
2023/11/07 09:11:31;;;;;;;1.75;0.52;;;10.50;99.90;;;;;;4102881;29;20199;-94
2023/11/07 09:13:33;;;;;;;1.23;0.35;;;10.60;99.90;;;;;;4103666;29;20198;-88
2023/11/07 09:15:34;;;;;;;7.88;1.42;;;10.60;99.90;;;;;;4136920;28;20519;-88
2023/11/07 09:17:35;;;;;;;0.80;0.22;;;10.60;99.90;;;;;;4118757;28;20271;-88
2023/11/07 09:19:36;;;;;;;0.60;0.60;;;10.50;99.90;;;;;;4104114;29;20194;-89
2023/11/07 09:21:38;;;;;;;5.63;0.77;;;10.50;99.90;;;;;;4105668;29;20212;-91
2023/11/07 09:23:38;;;;;;;1.52;0.50;;;10.60;99.90;;;;;;4104994;29;20218;-87
2023/11/07 09:25:39;;;;;;;1.65;0.95;;;10.50;99.90;;;;;;4119494;28;20240;-93
2023/11/07 09:27:40;;;;;;;0.85;0.68;;;10.60;99.90;;;;;;4103238;29;20211;-96
2023/11/07 09:29:41;;;;;;;3.30;0.55;;;10.50;99.90;;;;;;4119756;28;20226;-89
2023/11/07 09:31:41;;;;;;;0.28;0.28;;;10.50;99.90;;;;;;4105178;29;20187;-94
2023/11/07 09:33:42;;;;;;;0.50;0.30;;;10.60;99.90;;;;;;4119843;28;20209;-96
2023/11/07 09:35:43;;;;;;;1.45;0.80;;;10.70;99.90;;;;;;4105355;29;20663;-94
2023/11/07 09:37:44;;;;;;;1.30;0.93;;;10.70;99.90;;;;;;4104220;28;20270;-95
2023/11/07 09:39:45;;;;;;;0.93;0.60;;;10.80;99.90;;;;;;4103685;28;20274;-95
2023/11/07 09:41:46;;;;;;;2.97;0.77;;;11.00;99.90;;;;;;4102214;29;20179;-89
2023/11/07 09:43:50;;;;;;;2.58;0.40;;;10.90;99.90;;;;;;4102821;29;20321;-91
2023/11/07 09:45:53;;;;;;;1.85;0.40;;;10.80;99.90;;;;;;4118479;28;20241;-94
2023/11/07 09:47:56;;;;;;;0.22;0.20;;;11.00;99.90;;;;;;4101672;29;20315;-93
2023/11/07 09:49:56;;;;;;;0.90;0.50;;;11.00;99.90;;;;;;4104948;29;20183;-92
2023/11/07 09:51:59;;;;;;;0.77;0.38;;;11.00;99.90;;;;;;4119375;28;20218;-89
2023/11/07 09:54:01;;;;;;;0.73;0.30;;;11.00;99.90;;;;;;4104131;29;20183;-87
2023/11/07 09:56:05;;;;;;;1.17;0.15;;;11.10;99.90;;;;;;4104072;29;20671;-94
2023/11/07 09:58:07;;;;;;;3.08;0.25;;;11.30;99.90;;;;;;4103389;29;20191;-94
2023/11/07 10:00:13;;;;;;;4.30;0.40;;;11.60;99.90;;;;;;4107025;29;20229;-92
2023/11/07 10:02:13;;;;;;;0.70;0.43;;;11.60;99.90;;;;;;4122139;28;20182;-95
2023/11/07 10:04:17;;;;;;;1.58;0.30;;;11.50;99.90;;;;;;4104696;29;20175;-93
2023/11/07 10:06:19;;;;;;;0.43;0.32;;;11.60;99.90;;;;;;4106796;28;20186;-95
2023/11/07 10:08:23;;;;;;;1.10;0.50;;;11.40;99.90;;;;;;4111345;29;20203;-93
2023/11/07 10:10:24;;;;;;;0.63;0.32;;;11.20;99.90;;;;;;4114646;29;20241;-88
2023/11/07 10:12:25;;;;;;;1.52;0.38;;;11.10;99.90;;;;;;4115542;28;20183;-92
2023/11/07 10:14:28;;;;;;;1.25;0.30;;;11.10;99.90;;;;;;4119814;23;20259;-92
2023/11/07 10:16:36;;;;;;;0.32;0.32;;;11.00;99.90;;;;;;4115875;28;20710;-93
2023/11/07 10:18:49;;;;;;;3.00;0.73;;;11.10;99.90;;;;;;4115773;28;20224;-90
2023/11/07 10:20:54;;;;;;;0.20;0.20;;;11.20;99.90;;;;;;4115962;28;20277;-92
2023/11/07 10:22:55;;;;;;;0.80;0.30;;;11.30;99.90;;;;;;4100099;29;20214;-86
2023/11/07 10:24:56;;;;;;;1.80;0.77;;;11.20;99.90;;;;;;4116344;28;20602;-92
2023/11/07 10:26:58;;;;;;;0.52;0.30;;;11.20;99.90;;;;;;4116157;28;20639;-85
2023/11/07 10:29:13;;;;;;;1.77;0.45;;;11.30;99.90;;;;;;4100191;29;20214;-91
2023/11/07 10:31:20;;;;;;;0.38;0.25;;;11.50;99.90;;;;;;4116335;28;20182;-85
2023/11/07 10:33:29;;;;;;;0.75;0.40;;;11.70;99.90;;;;;;4100204;29;20179;-91
2023/11/07 10:35:32;;;;;;;1.60;0.38;;;11.80;99.90;;;;;;4099876;29;20192;-91
2023/11/07 10:37:36;;;;;;;0.88;0.30;;;11.60;99.90;;;;;;4116020;28;20197;-84
2023/11/07 10:39:37;;;;;;;2.58;0.50;;;11.70;99.90;;;;;;4099557;29;20270;-91